createdAt,value
2023-05-09T00:01:31.464Z,13.20
2023-05-09T00:03:59.940Z,13.20
2023-05-09T00:06:27.897Z,13.10
2023-05-09T00:08:55.856Z,13.10
2023-05-09T00:11:23.221Z,13.10
2023-05-09T00:13:51.056Z,13.10
2023-05-09T00:16:18.769Z,13.20
2023-05-09T00:18:47.221Z,13.20
2023-05-09T00:21:14.302Z,13.20
2023-05-09T00:23:41.426Z,13.20
2023-05-09T00:26:10.351Z,13.20
2023-05-09T00:28:39.306Z,13.20
2023-05-09T00:31:06.801Z,13.20
2023-05-09T00:33:33.900Z,13.20
2023-05-09T00:36:01.119Z,13.20
2023-05-09T00:38:28.731Z,13.30
2023-05-09T00:40:55.773Z,13.30
2023-05-09T00:43:23.119Z,13.30
2023-05-09T00:45:50.848Z,13.30
2023-05-09T00:48:18.354Z,13.30
2023-05-09T00:50:46.352Z,13.20
2023-05-09T00:53:13.896Z,13.20
2023-05-09T00:55:40.965Z,13.20
2023-05-09T00:58:08.119Z,13.10
2023-05-09T01:00:35.255Z,13.10
2023-05-09T01:03:02.637Z,13.10
2023-05-09T01:05:47.851Z,13.10
2023-05-09T01:08:30.622Z,13.10
2023-05-09T01:11:13.425Z,13.00
2023-05-09T01:14:19.234Z,13.00
2023-05-09T01:16:54.173Z,13.00
2023-05-09T01:19:57.655Z,13.00
2023-05-09T01:22:37.044Z,13.10
2023-05-09T01:25:33.252Z,13.10
2023-05-09T01:28:43.758Z,13.10
2023-05-09T01:31:11.316Z,13.10
2023-05-09T01:33:41.107Z,13.10
2023-05-09T01:36:16.174Z,13.10
2023-05-09T01:38:45.217Z,13.00
2023-05-09T01:41:16.293Z,12.90
2023-05-09T01:43:46.409Z,12.90
2023-05-09T01:46:17.136Z,12.80
2023-05-09T01:48:45.746Z,12.80
2023-05-09T01:51:14.448Z,12.80
2023-05-09T01:53:44.372Z,12.70
2023-05-09T01:56:12.913Z,12.70
2023-05-09T01:58:41.449Z,12.70
2023-05-09T02:01:09.943Z,12.70
2023-05-09T02:03:39.174Z,12.70
2023-05-09T02:06:07.807Z,12.60
2023-05-09T02:08:35.614Z,12.60
2023-05-09T02:11:02.825Z,12.60
2023-05-09T02:13:30.198Z,12.50
2023-05-09T02:15:57.799Z,12.50
2023-05-09T02:18:24.905Z,12.40
2023-05-09T02:20:52.188Z,12.40
2023-05-09T02:23:20.131Z,12.40
2023-05-09T02:25:47.312Z,12.30
2023-05-09T02:28:15.622Z,12.30
2023-05-09T02:30:45.831Z,12.30
2023-05-09T02:33:14.032Z,12.30
2023-05-09T02:35:45.731Z,12.30
2023-05-09T02:38:14.067Z,12.40
2023-05-09T02:40:44.394Z,12.40
2023-05-09T02:43:11.833Z,12.40
2023-05-09T02:45:39.056Z,12.50
2023-05-09T02:48:08.666Z,12.50
2023-05-09T02:50:38.463Z,12.50
2023-05-09T02:53:06.518Z,12.50
2023-05-09T02:55:33.640Z,12.60
2023-05-09T02:58:12.501Z,12.60
2023-05-09T03:00:42.141Z,12.70
2023-05-09T03:03:10.033Z,12.70
2023-05-09T03:05:37.181Z,12.70
2023-05-09T03:08:05.001Z,12.70
2023-05-09T03:10:34.232Z,12.80
2023-05-09T03:13:01.733Z,12.80
2023-05-09T03:15:28.812Z,12.80
2023-05-09T03:17:58.384Z,12.80
2023-05-09T03:20:27.534Z,12.80
2023-05-09T03:22:54.837Z,12.90
2023-05-09T03:25:22.414Z,12.90
2023-05-09T03:27:52.605Z,12.90
2023-05-09T03:30:20.061Z,12.90
2023-05-09T03:32:49.301Z,12.90
2023-05-09T03:35:16.978Z,12.90
2023-05-09T03:37:44.336Z,13.00
2023-05-09T03:40:12.076Z,13.00
2023-05-09T03:42:49.339Z,13.00
2023-05-09T03:45:16.812Z,13.00
2023-05-09T03:47:46.342Z,13.00
2023-05-09T03:50:14.129Z,13.00
2023-05-09T03:52:41.957Z,13.00
2023-05-09T03:55:10.077Z,13.00
2023-05-09T03:57:37.723Z,13.10
2023-05-09T04:00:06.764Z,13.10
2023-05-09T04:02:42.137Z,13.10
2023-05-09T04:05:14.764Z,13.10
2023-05-09T04:07:43.074Z,13.10
2023-05-09T04:10:11.711Z,13.10
2023-05-09T04:12:39.313Z,13.10
2023-05-09T04:15:07.971Z,13.10
2023-05-09T04:17:36.055Z,13.10
2023-05-09T04:20:03.715Z,13.10
2023-05-09T04:22:31.142Z,13.10
2023-05-09T04:24:58.270Z,13.10
2023-05-09T04:27:25.904Z,13.10
2023-05-09T04:29:53.815Z,13.10
2023-05-09T04:32:22.508Z,13.10
2023-05-09T04:34:50.127Z,13.10
2023-05-09T04:37:21.048Z,13.10
2023-05-09T04:39:48.162Z,13.10
2023-05-09T04:42:21.055Z,13.10
2023-05-09T04:44:49.468Z,13.20
2023-05-09T04:47:16.693Z,13.20
2023-05-09T04:49:43.795Z,13.20
2023-05-09T04:52:10.944Z,13.20
2023-05-09T04:54:38.186Z,13.30
2023-05-09T04:57:17.281Z,13.30
2023-05-09T04:59:50.317Z,13.20
2023-05-09T05:02:17.481Z,13.20
2023-05-09T05:04:45.278Z,13.20
2023-05-09T05:07:12.963Z,13.20
2023-05-09T05:09:40.024Z,13.20
2023-05-09T05:12:09.746Z,13.20
2023-05-09T05:14:38.787Z,13.20
2023-05-09T05:17:08.437Z,13.10
2023-05-09T05:19:35.752Z,13.10
2023-05-09T05:22:06.010Z,13.10
2023-05-09T05:24:34.515Z,13.10
2023-05-09T05:27:01.830Z,13.10
2023-05-09T05:29:29.385Z,13.10
2023-05-09T05:31:56.725Z,13.10
2023-05-09T05:34:24.041Z,13.10
2023-05-09T05:36:51.554Z,13.10
2023-05-09T05:39:18.826Z,13.10
2023-05-09T05:41:46.014Z,13.10
2023-05-09T05:44:13.184Z,13.20
2023-05-09T05:46:40.568Z,13.20
2023-05-09T05:49:07.914Z,13.20
2023-05-09T05:51:35.026Z,13.20
2023-05-09T05:54:03.792Z,13.30
2023-05-09T05:56:30.996Z,13.40
2023-05-09T05:58:58.475Z,13.40
2023-05-09T06:01:25.720Z,13.50
2023-05-09T06:03:56.324Z,13.50
2023-05-09T06:06:29.688Z,13.60
2023-05-09T06:08:57.431Z,13.70
2023-05-09T06:11:24.730Z,13.70
2023-05-09T06:13:51.842Z,13.80
2023-05-09T06:16:20.335Z,13.90
2023-05-09T06:18:53.359Z,13.90
2023-05-09T06:21:21.793Z,13.90
2023-05-09T06:24:05.771Z,13.90
2023-05-09T06:26:36.181Z,13.90
2023-05-09T06:29:06.320Z,13.80
2023-05-09T06:31:38.457Z,13.90
2023-05-09T06:34:06.173Z,13.90
2023-05-09T06:36:34.628Z,13.90
2023-05-09T06:39:01.774Z,14.00
2023-05-09T06:41:28.860Z,14.00
2023-05-09T06:43:56.303Z,14.00
2023-05-09T06:46:23.418Z,14.00
2023-05-09T06:48:50.583Z,14.10
2023-05-09T06:51:17.707Z,14.00
2023-05-09T06:53:44.762Z,14.00
2023-05-09T06:56:12.350Z,14.00
2023-05-09T06:58:39.631Z,14.00
2023-05-09T07:01:06.942Z,14.00
2023-05-09T07:03:34.035Z,14.00
2023-05-09T07:06:01.354Z,14.00
2023-05-09T07:08:29.026Z,14.00
2023-05-09T07:10:56.252Z,14.00
2023-05-09T07:13:25.968Z,14.00
2023-05-09T07:15:53.153Z,14.00
2023-05-09T07:18:20.350Z,14.10
2023-05-09T07:20:47.429Z,14.10
2023-05-09T07:23:14.446Z,14.10
2023-05-09T07:25:41.651Z,14.10
2023-05-09T07:28:08.777Z,14.10
2023-05-09T07:30:36.117Z,14.10
2023-05-09T07:33:03.748Z,14.10
2023-05-09T07:35:31.022Z,14.10
2023-05-09T07:37:58.077Z,14.10
2023-05-09T07:40:25.160Z,14.10
2023-05-09T07:42:55.080Z,14.10
2023-05-09T07:45:23.919Z,14.10
2023-05-09T07:47:51.293Z,14.10
2023-05-09T07:50:18.582Z,14.20
2023-05-09T07:52:46.335Z,14.20
2023-05-09T07:55:13.628Z,14.20
2023-05-09T07:57:41.017Z,14.20
2023-05-09T08:00:10.641Z,14.20
2023-05-09T08:02:43.490Z,14.10
2023-05-09T08:05:14.355Z,14.00
2023-05-09T08:07:41.668Z,13.90
2023-05-09T08:10:09.890Z,14.00
2023-05-09T08:12:37.030Z,14.10
2023-05-09T08:15:04.836Z,14.10
2023-05-09T08:17:31.933Z,14.20
2023-05-09T08:19:58.993Z,14.20
2023-05-09T08:22:26.068Z,14.30
2023-05-09T08:24:53.118Z,14.30
2023-05-09T08:27:20.283Z,14.30
2023-05-09T08:29:47.432Z,14.40
2023-05-09T08:32:14.504Z,14.40
2023-05-09T08:34:41.685Z,14.40
2023-05-09T08:37:08.877Z,14.30
2023-05-09T08:39:36.093Z,14.30
2023-05-09T08:42:03.569Z,14.20
2023-05-09T08:44:32.198Z,14.20
2023-05-09T08:47:02.280Z,14.20
2023-05-09T08:49:29.978Z,14.10
2023-05-09T08:51:57.868Z,14.00
2023-05-09T08:54:25.604Z,14.00
2023-05-09T08:56:52.832Z,13.90
2023-05-09T08:59:20.061Z,13.90
2023-05-09T09:01:47.664Z,14.00
2023-05-09T09:04:14.946Z,14.10
2023-05-09T09:06:42.782Z,14.20
2023-05-09T09:09:11.871Z,14.30
2023-05-09T09:11:41.086Z,14.40
2023-05-09T09:14:22.157Z,14.40
2023-05-09T09:16:50.152Z,14.40
2023-05-09T09:19:18.632Z,14.40
2023-05-09T09:21:47.474Z,14.40
2023-05-09T09:24:19.695Z,14.30
2023-05-09T09:26:48.720Z,14.30
2023-05-09T09:29:17.406Z,14.30
2023-05-09T09:31:46.917Z,14.20
2023-05-09T09:34:22.291Z,14.20
2023-05-09T09:36:50.048Z,14.20
2023-05-09T09:39:17.224Z,14.20
2023-05-09T09:41:47.174Z,14.10
2023-05-09T09:44:22.391Z,14.00
2023-05-09T09:46:55.826Z,14.00
2023-05-09T09:49:26.261Z,14.00
2023-05-09T09:51:58.430Z,14.10
2023-05-09T09:54:29.280Z,14.30
2023-05-09T09:56:56.627Z,14.40
2023-05-09T09:59:26.543Z,14.40
2023-05-09T10:02:07.539Z,14.60
2023-05-09T10:04:37.899Z,14.60
2023-05-09T10:07:07.806Z,14.60
2023-05-09T10:09:38.101Z,14.60
2023-05-09T10:12:07.907Z,14.60
2023-05-09T10:14:37.006Z,14.50
2023-05-09T10:17:05.629Z,14.40
2023-05-09T10:19:33.672Z,14.40
2023-05-09T10:22:10.190Z,14.30
2023-05-09T10:24:48.371Z,14.20
2023-05-09T10:27:22.850Z,14.10
2023-05-09T10:29:58.258Z,14.10
2023-05-09T10:32:46.264Z,14.10
2023-05-09T10:35:17.167Z,14.10
2023-05-09T10:37:46.488Z,14.00
2023-05-09T10:40:15.288Z,14.00
2023-05-09T10:42:44.026Z,14.00
2023-05-09T10:45:12.988Z,13.90
2023-05-09T10:47:42.119Z,13.90
2023-05-09T10:50:13.913Z,13.90
2023-05-09T10:53:07.538Z,14.00
2023-05-09T10:55:39.032Z,13.90
2023-05-09T10:58:33.736Z,13.90
2023-05-09T11:01:03.813Z,14.00
2023-05-09T11:03:55.016Z,13.90
2023-05-09T11:06:52.124Z,14.00
2023-05-09T11:09:38.236Z,14.00
2023-05-09T11:12:05.415Z,14.10
2023-05-09T11:14:47.008Z,14.10
2023-05-09T11:17:23.531Z,14.20
2023-05-09T11:19:50.696Z,14.10
2023-05-09T11:22:30.729Z,14.20
2023-05-09T11:25:07.450Z,14.20
2023-05-09T11:27:46.117Z,14.10
2023-05-09T11:30:18.864Z,14.20
2023-05-09T11:32:51.703Z,14.20
2023-05-09T11:35:21.856Z,14.40
2023-05-09T11:37:55.304Z,14.50
2023-05-09T11:40:23.263Z,14.60
2023-05-09T11:42:58.454Z,14.60
2023-05-09T11:45:33.587Z,14.60
2023-05-09T11:48:01.362Z,14.50
2023-05-09T11:50:29.401Z,14.40
2023-05-09T11:52:56.656Z,14.40
2023-05-09T11:55:25.291Z,14.30
2023-05-09T11:57:54.557Z,14.20
2023-05-09T12:00:24.374Z,14.10
2023-05-09T12:02:53.310Z,14.00
2023-05-09T12:05:22.908Z,14.00
2023-05-09T12:07:50.949Z,14.00
2023-05-09T12:10:25.915Z,14.10
2023-05-09T12:12:57.093Z,14.00
2023-05-09T12:15:24.856Z,13.90
2023-05-09T12:18:04.480Z,13.90
2023-05-09T12:20:50.432Z,13.90
2023-05-09T12:23:18.396Z,13.90
2023-05-09T12:25:48.995Z,14.00
2023-05-09T12:28:16.754Z,14.00
2023-05-09T12:30:45.046Z,13.90
2023-05-09T12:33:12.628Z,13.70
2023-05-09T12:35:40.545Z,13.70
2023-05-09T12:38:07.753Z,13.50
2023-05-09T12:40:34.846Z,13.50
2023-05-09T12:43:03.060Z,13.30
2023-05-09T12:45:33.829Z,13.20
2023-05-09T12:48:02.489Z,13.20
2023-05-09T12:50:36.452Z,13.20
2023-05-09T12:53:06.934Z,13.20
2023-05-09T12:55:41.603Z,13.20
2023-05-09T12:58:09.022Z,13.20
2023-05-09T13:00:46.129Z,13.20
2023-05-09T13:03:25.397Z,13.20
2023-05-09T13:05:58.385Z,13.20
2023-05-09T13:08:26.226Z,13.10
2023-05-09T13:11:03.975Z,13.20
2023-05-09T13:13:35.753Z,13.20
2023-05-09T13:16:06.000Z,13.20
2023-05-09T13:18:34.118Z,13.20
2023-05-09T13:21:01.279Z,13.20
2023-05-09T13:23:28.413Z,13.20
2023-05-09T13:25:55.454Z,13.30
2023-05-09T13:28:22.626Z,13.30
2023-05-09T13:30:49.701Z,13.30
2023-05-09T13:33:25.236Z,13.30
2023-05-09T13:35:53.645Z,13.40
2023-05-09T13:38:20.866Z,13.30
2023-05-09T13:40:48.045Z,13.20
2023-05-09T13:43:15.061Z,13.30
2023-05-09T13:45:42.333Z,13.30
2023-05-09T13:48:09.532Z,13.20
2023-05-09T13:50:36.648Z,13.20
2023-05-09T13:53:03.664Z,13.20
2023-05-09T13:55:31.088Z,13.20
2023-05-09T13:57:58.239Z,13.10
2023-05-09T14:00:26.647Z,13.10
2023-05-09T14:02:53.930Z,13.10
2023-05-09T14:05:21.145Z,13.10
2023-05-09T14:07:48.383Z,13.10
2023-05-09T14:10:15.917Z,13.10
2023-05-09T14:12:47.286Z,13.20
2023-05-09T14:15:14.508Z,13.20
2023-05-09T14:17:43.433Z,13.20
2023-05-09T14:20:11.258Z,13.30
2023-05-09T14:22:38.369Z,13.40
2023-05-09T14:25:06.232Z,13.30
2023-05-09T14:27:36.817Z,13.30
2023-05-09T14:30:08.673Z,13.40
2023-05-09T14:32:35.771Z,13.40
2023-05-09T14:35:02.942Z,13.50
2023-05-09T14:37:30.431Z,13.50
2023-05-09T14:39:57.490Z,13.50
2023-05-09T14:42:24.628Z,13.40
2023-05-09T14:44:51.872Z,13.40
2023-05-09T14:47:19.090Z,13.30
2023-05-09T14:49:46.290Z,13.20
2023-05-09T14:52:13.845Z,13.20
2023-05-09T14:54:41.920Z,13.20
2023-05-09T14:57:09.173Z,13.20
2023-05-09T14:59:37.201Z,13.20
2023-05-09T15:02:04.626Z,13.20
2023-05-09T15:04:31.866Z,13.20
2023-05-09T15:06:59.772Z,13.30
2023-05-09T15:09:27.093Z,13.30
2023-05-09T15:11:55.122Z,13.30
2023-05-09T15:14:22.586Z,13.30
2023-05-09T15:16:52.191Z,13.30
2023-05-09T15:19:19.673Z,13.30
2023-05-09T15:21:46.815Z,13.30
2023-05-09T15:24:14.018Z,13.30
2023-05-09T15:26:41.110Z,13.40
2023-05-09T15:29:08.205Z,13.40
2023-05-09T15:31:36.920Z,13.40
2023-05-09T15:34:04.637Z,13.40
2023-05-09T15:36:33.402Z,13.40
2023-05-09T15:39:01.015Z,13.40
2023-05-09T15:41:28.675Z,13.40
2023-05-09T15:43:55.827Z,13.40
2023-05-09T15:46:23.180Z,13.30
2023-05-09T15:48:50.685Z,13.40
2023-05-09T15:51:17.815Z,13.30
2023-05-09T15:53:44.974Z,13.40
2023-05-09T15:56:12.075Z,13.40
2023-05-09T15:58:40.366Z,13.40
2023-05-09T16:01:08.271Z,13.40
2023-05-09T16:03:35.777Z,13.30
2023-05-09T16:06:03.309Z,13.40
2023-05-09T16:08:30.368Z,13.40
2023-05-09T16:11:00.797Z,13.40
2023-05-09T16:13:30.160Z,13.40
2023-05-09T16:15:57.508Z,13.40
2023-05-09T16:18:24.684Z,13.40
2023-05-09T16:20:52.251Z,13.40
2023-05-09T16:23:21.027Z,13.40
2023-05-09T16:25:49.837Z,13.30
2023-05-09T16:28:17.198Z,13.30
2023-05-09T16:30:44.367Z,13.40
2023-05-09T16:33:11.414Z,13.40
2023-05-09T16:35:38.579Z,13.40
2023-05-09T16:38:05.861Z,13.40
2023-05-09T16:40:33.076Z,13.40
2023-05-09T16:43:00.157Z,13.40
2023-05-09T16:45:27.594Z,13.50
2023-05-09T16:47:55.707Z,13.60
2023-05-09T16:50:23.813Z,13.70
2023-05-09T16:52:50.925Z,13.70
2023-05-09T16:55:18.251Z,13.80
2023-05-09T16:57:45.420Z,13.80
2023-05-09T17:00:13.671Z,13.80
2023-05-09T17:02:40.899Z,13.80
2023-05-09T17:05:08.370Z,13.70
2023-05-09T17:07:35.622Z,13.70
2023-05-09T17:10:02.725Z,13.70
2023-05-09T17:12:30.325Z,13.70
2023-05-09T17:14:57.403Z,13.70
2023-05-09T17:17:24.695Z,13.70
2023-05-09T17:19:52.075Z,13.70
2023-05-09T17:22:19.254Z,13.70
2023-05-09T17:24:49.338Z,13.80
2023-05-09T17:27:16.493Z,13.80
2023-05-09T17:29:43.540Z,13.80
2023-05-09T17:32:10.756Z,13.80
2023-05-09T17:34:39.025Z,13.80
2023-05-09T17:37:07.319Z,13.80
2023-05-09T17:39:35.340Z,13.80
2023-05-09T17:42:02.430Z,13.80
2023-05-09T17:44:30.130Z,13.80
2023-05-09T17:46:58.230Z,13.90
2023-05-09T17:49:25.424Z,13.90
2023-05-09T17:51:52.735Z,13.90
2023-05-09T17:54:19.796Z,13.90
2023-05-09T17:56:50.993Z,13.90
2023-05-09T17:59:18.607Z,13.90
2023-05-09T18:01:45.953Z,13.90
2023-05-09T18:04:13.429Z,13.90
2023-05-09T18:06:54.628Z,13.90
2023-05-09T18:09:22.793Z,13.90
2023-05-09T18:11:52.498Z,13.90
2023-05-09T18:14:22.713Z,13.90
2023-05-09T18:16:49.852Z,13.90
2023-05-09T18:19:16.908Z,13.90
2023-05-09T18:21:44.046Z,13.90
2023-05-09T18:24:11.157Z,13.90
2023-05-09T18:26:38.258Z,13.80
2023-05-09T18:29:05.436Z,13.80
2023-05-09T18:31:38.679Z,13.80
2023-05-09T18:34:06.112Z,13.70
2023-05-09T18:36:33.898Z,13.70
2023-05-09T18:39:01.199Z,13.60
2023-05-09T18:41:29.210Z,13.70
2023-05-09T18:43:58.398Z,13.70
2023-05-09T18:46:27.831Z,13.60
2023-05-09T18:48:55.094Z,13.60
2023-05-09T18:51:22.206Z,13.60
2023-05-09T18:53:49.576Z,13.50
2023-05-09T18:56:19.069Z,13.50
2023-05-09T18:58:46.134Z,13.30
2023-05-09T19:01:13.322Z,13.30
2023-05-09T19:03:45.388Z,13.30
2023-05-09T19:06:14.294Z,13.30
2023-05-09T19:08:43.258Z,13.30
2023-05-09T19:11:11.694Z,13.30
2023-05-09T19:13:49.077Z,13.20
2023-05-09T19:16:19.855Z,13.20
2023-05-09T19:18:47.716Z,13.20
2023-05-09T19:21:16.039Z,13.10
2023-05-09T19:23:47.865Z,13.00
2023-05-09T19:26:17.052Z,12.90
2023-05-09T19:28:46.804Z,12.90
2023-05-09T19:31:15.452Z,12.80
2023-05-09T19:33:45.772Z,12.80
2023-05-09T19:36:14.439Z,12.80
2023-05-09T19:38:41.907Z,12.70
2023-05-09T19:41:09.811Z,12.70
2023-05-09T19:43:37.024Z,12.70
2023-05-09T19:46:04.172Z,12.70
2023-05-09T19:48:31.652Z,12.60
2023-05-09T19:50:59.418Z,12.70
2023-05-09T19:53:26.771Z,12.70
2023-05-09T19:55:56.405Z,12.70
2023-05-09T19:58:23.451Z,12.70
2023-05-09T20:00:50.583Z,12.70
2023-05-09T20:03:17.734Z,12.70
2023-05-09T20:05:44.914Z,12.70
2023-05-09T20:08:12.040Z,12.60
2023-05-09T20:10:39.209Z,12.60
2023-05-09T20:13:06.784Z,12.60
2023-05-09T20:15:34.033Z,12.60
2023-05-09T20:18:03.606Z,12.60
2023-05-09T20:20:32.300Z,12.50
2023-05-09T20:22:59.886Z,12.50
2023-05-09T20:25:27.226Z,12.50
2023-05-09T20:27:54.321Z,12.40
2023-05-09T20:30:21.665Z,12.40
2023-05-09T20:32:48.958Z,12.40
2023-05-09T20:35:16.152Z,12.40
2023-05-09T20:37:43.353Z,12.50
2023-05-09T20:40:10.861Z,12.50
2023-05-09T20:42:40.500Z,12.50
2023-05-09T20:45:08.412Z,12.60
2023-05-09T20:47:35.682Z,12.60
2023-05-09T20:50:02.990Z,12.60
2023-05-09T20:52:30.028Z,12.60
2023-05-09T20:54:59.132Z,12.60
2023-05-09T20:57:26.268Z,12.70
2023-05-09T20:59:53.948Z,12.60
2023-05-09T21:02:21.123Z,12.60
2023-05-09T21:04:51.500Z,12.60
2023-05-09T21:07:19.444Z,12.60
2023-05-09T21:09:47.826Z,12.60
2023-05-09T21:12:15.053Z,12.60
2023-05-09T21:14:42.179Z,12.60
2023-05-09T21:17:09.697Z,12.70
2023-05-09T21:19:36.947Z,12.70
2023-05-09T21:22:04.081Z,12.70
2023-05-09T21:24:31.218Z,12.70
2023-05-09T21:26:58.326Z,12.60
2023-05-09T21:29:25.513Z,12.60
2023-05-09T21:31:53.065Z,12.60
2023-05-09T21:34:20.433Z,12.60
2023-05-09T21:36:47.510Z,12.60
2023-05-09T21:39:14.575Z,12.70
2023-05-09T21:41:42.972Z,12.70
2023-05-09T21:44:11.307Z,12.60
2023-05-09T21:46:38.828Z,12.60
2023-05-09T21:49:06.574Z,12.60
2023-05-09T21:51:34.736Z,12.50
2023-05-09T21:54:01.838Z,12.50
2023-05-09T21:56:29.378Z,12.50
2023-05-09T21:58:56.408Z,12.50
2023-05-09T22:01:23.578Z,12.50
2023-05-09T22:03:51.593Z,12.50
2023-05-09T22:06:18.992Z,12.40
2023-05-09T22:08:46.106Z,12.40
2023-05-09T22:11:14.769Z,12.40
2023-05-09T22:13:42.526Z,12.30
2023-05-09T22:16:10.793Z,12.30
2023-05-09T22:18:37.866Z,12.30
2023-05-09T22:21:05.559Z,12.40
2023-05-09T22:23:32.772Z,12.40
2023-05-09T22:25:59.920Z,12.30
2023-05-09T22:28:28.876Z,12.30
2023-05-09T22:30:56.067Z,12.30
2023-05-09T22:33:23.186Z,12.30
2023-05-09T22:35:50.304Z,12.30
2023-05-09T22:38:17.361Z,12.30
2023-05-09T22:40:44.576Z,12.30
2023-05-09T22:43:11.761Z,12.20
2023-05-09T22:45:38.914Z,12.20
2023-05-09T22:48:06.492Z,12.20
2023-05-09T22:50:35.073Z,12.20
2023-05-09T22:53:02.136Z,12.10
2023-05-09T22:55:29.211Z,12.00
2023-05-09T22:57:56.238Z,11.90
2023-05-09T23:00:23.378Z,11.90
2023-05-09T23:02:50.516Z,11.80
2023-05-09T23:05:17.889Z,11.70
2023-05-09T23:07:45.380Z,11.70
2023-05-09T23:10:12.552Z,11.70
2023-05-09T23:12:39.593Z,11.70
2023-05-09T23:15:07.610Z,11.70
2023-05-09T23:17:34.970Z,11.70
2023-05-09T23:20:03.930Z,11.80
2023-05-09T23:22:31.449Z,11.80
2023-05-09T23:25:00.776Z,11.80
2023-05-09T23:27:28.739Z,11.70
2023-05-09T23:29:55.779Z,11.70
2023-05-09T23:32:23.084Z,11.60
2023-05-09T23:34:50.184Z,11.60
2023-05-09T23:37:17.354Z,11.60
2023-05-09T23:39:44.416Z,11.60
2023-05-09T23:42:12.367Z,11.60
2023-05-09T23:44:39.491Z,11.70
2023-05-09T23:47:06.849Z,11.70
2023-05-09T23:49:35.163Z,11.60
2023-05-09T23:52:02.278Z,11.60
2023-05-09T23:54:29.420Z,11.60
2023-05-09T23:56:57.324Z,11.70
2023-05-09T23:59:24.476Z,11.70
